createdAt,value
2019-06-20T00:01:35.125Z,20.20
2019-06-20T00:04:01.225Z,20.20
2019-06-20T00:06:27.418Z,20.10
2019-06-20T00:08:53.658Z,20.00
2019-06-20T00:11:19.855Z,20.00
2019-06-20T00:13:45.924Z,19.90
2019-06-20T00:16:12.015Z,19.80
2019-06-20T00:18:38.080Z,19.70
2019-06-20T00:21:04.148Z,19.70
2019-06-20T00:23:30.245Z,19.60
2019-06-20T00:25:56.409Z,19.50
2019-06-20T00:28:22.500Z,19.50
2019-06-20T00:30:48.583Z,19.50
2019-06-20T00:33:14.658Z,19.50
2019-06-20T00:35:40.939Z,19.50
2019-06-20T00:38:07.010Z,19.50
2019-06-20T00:40:33.110Z,19.50
2019-06-20T00:42:59.176Z,19.40
2019-06-20T00:45:25.239Z,19.40
2019-06-20T00:47:51.346Z,19.40
2019-06-20T00:50:17.512Z,19.40
2019-06-20T00:52:43.599Z,19.30
2019-06-20T00:55:10.206Z,19.30
2019-06-20T00:57:36.294Z,19.10
2019-06-20T01:00:06.435Z,19.10
2019-06-20T01:02:32.611Z,19.00
2019-06-20T01:04:58.687Z,19.00
2019-06-20T01:07:24.888Z,18.90
2019-06-20T01:09:50.972Z,18.90
2019-06-20T01:12:17.052Z,19.00
2019-06-20T01:14:43.256Z,19.10
2019-06-20T01:17:09.425Z,19.00
2019-06-20T01:19:35.500Z,19.00
2019-06-20T01:22:01.644Z,19.00
2019-06-20T01:24:27.841Z,19.00
2019-06-20T01:26:53.936Z,19.00
2019-06-20T01:29:20.017Z,18.80
2019-06-20T01:31:46.174Z,18.80
2019-06-20T01:34:12.263Z,18.60
2019-06-20T01:36:38.336Z,18.60
2019-06-20T01:39:05.542Z,18.50
2019-06-20T01:41:31.604Z,18.50
2019-06-20T01:43:57.680Z,18.50
2019-06-20T01:46:23.868Z,18.40
2019-06-20T01:48:49.956Z,18.30
2019-06-20T01:51:16.284Z,18.30
2019-06-20T01:53:42.352Z,18.40
2019-06-20T01:56:08.420Z,18.30
2019-06-20T01:58:34.525Z,18.20
2019-06-20T02:01:00.708Z,18.00
2019-06-20T02:03:26.771Z,17.70
2019-06-20T02:05:52.871Z,17.60
2019-06-20T02:08:18.936Z,17.50
2019-06-20T02:10:45.154Z,17.50
2019-06-20T02:13:11.356Z,17.60
2019-06-20T02:15:37.537Z,17.60
2019-06-20T02:18:03.939Z,17.70
2019-06-20T02:20:49.374Z,17.90
2019-06-20T02:23:15.488Z,18.10
2019-06-20T02:25:41.572Z,18.30
2019-06-20T02:28:07.639Z,18.40
2019-06-20T02:30:33.725Z,18.60
2019-06-20T02:32:59.893Z,18.60
2019-06-20T02:35:26.002Z,18.60
2019-06-20T02:37:52.186Z,18.60
2019-06-20T02:40:18.647Z,18.30
2019-06-20T02:42:45.032Z,18.00
2019-06-20T02:45:11.608Z,18.10
2019-06-20T02:47:37.797Z,18.30
2019-06-20T02:50:04.969Z,18.30
2019-06-20T02:52:31.237Z,18.40
2019-06-20T02:54:57.322Z,18.40
2019-06-20T02:57:23.408Z,18.40
2019-06-20T02:59:49.499Z,18.50
2019-06-20T03:02:15.664Z,18.30
2019-06-20T03:04:45.480Z,18.10
2019-06-20T03:07:09.733Z,18.20
2019-06-20T03:09:35.801Z,18.10
2019-06-20T03:12:01.868Z,17.90
2019-06-20T03:14:27.947Z,17.60
2019-06-20T03:16:54.015Z,17.60
2019-06-20T03:19:20.112Z,17.80
2019-06-20T03:21:46.286Z,18.10
2019-06-20T03:24:12.349Z,18.10
2019-06-20T03:26:38.432Z,18.30
2019-06-20T03:29:04.508Z,18.30
2019-06-20T03:31:30.712Z,18.30
2019-06-20T03:33:56.890Z,18.30
2019-06-20T03:36:22.972Z,18.40
2019-06-20T03:38:49.059Z,18.40
2019-06-20T03:41:15.132Z,18.30
2019-06-20T03:43:41.240Z,18.40
2019-06-20T03:46:07.387Z,18.50
2019-06-20T03:48:33.565Z,18.50
2019-06-20T03:50:59.641Z,18.60
2019-06-20T03:53:25.736Z,18.60
2019-06-20T03:55:51.803Z,18.50
2019-06-20T03:58:17.893Z,18.40
2019-06-20T04:00:43.985Z,18.40
2019-06-20T04:03:10.141Z,18.40
2019-06-20T04:05:36.329Z,18.40
2019-06-20T04:08:02.812Z,18.40
2019-06-20T04:10:28.984Z,18.50
2019-06-20T04:12:55.056Z,18.50
2019-06-20T04:15:21.151Z,18.40
2019-06-20T04:17:47.313Z,18.50
2019-06-20T04:20:13.397Z,18.50
2019-06-20T04:22:39.464Z,18.60
2019-06-20T04:25:06.365Z,18.60
2019-06-20T04:27:32.437Z,18.70
2019-06-20T04:29:58.625Z,18.60
2019-06-20T04:32:24.699Z,18.60
2019-06-20T04:34:50.820Z,18.60
2019-06-20T04:37:16.884Z,18.70
2019-06-20T04:39:42.961Z,18.60
2019-06-20T04:42:09.023Z,18.40
2019-06-20T04:44:35.109Z,18.10
2019-06-20T04:47:05.585Z,18.20
2019-06-20T04:49:31.669Z,18.20
2019-06-20T04:51:57.745Z,18.30
2019-06-20T04:54:23.836Z,18.30
2019-06-20T04:56:49.924Z,18.30
2019-06-20T04:59:16.115Z,18.40
2019-06-20T05:01:42.245Z,18.50
2019-06-20T05:04:08.372Z,18.60
2019-06-20T05:06:34.449Z,18.70
2019-06-20T05:09:00.528Z,18.90
2019-06-20T05:11:26.597Z,18.90
2019-06-20T05:13:52.673Z,19.10
2019-06-20T05:16:18.760Z,19.20
2019-06-20T05:18:44.824Z,19.30
2019-06-20T05:21:10.924Z,19.50
2019-06-20T05:23:37.005Z,19.60
2019-06-20T05:26:03.083Z,19.70
2019-06-20T05:28:29.173Z,19.90
2019-06-20T05:30:55.236Z,20.00
2019-06-20T05:33:21.309Z,19.90
2019-06-20T05:35:47.407Z,19.70
2019-06-20T05:38:13.672Z,19.60
2019-06-20T05:40:39.741Z,19.80
2019-06-20T05:43:05.825Z,20.00
2019-06-20T05:45:31.937Z,20.20
2019-06-20T05:47:58.087Z,20.50
2019-06-20T05:50:24.258Z,20.50
2019-06-20T05:52:50.332Z,20.40
2019-06-20T05:55:16.540Z,20.50
2019-06-20T05:57:42.605Z,20.60
2019-06-20T06:00:10.504Z,20.70
2019-06-20T06:02:36.703Z,20.90
2019-06-20T06:05:04.756Z,21.00
2019-06-20T06:07:30.857Z,21.20
2019-06-20T06:09:57.027Z,21.40
2019-06-20T06:12:23.193Z,21.30
2019-06-20T06:14:49.255Z,21.20
2019-06-20T06:17:15.342Z,21.10
2019-06-20T06:19:41.432Z,21.40
2019-06-20T06:22:07.601Z,21.70
2019-06-20T06:24:33.668Z,22.00
2019-06-20T06:27:00.166Z,22.20
2019-06-20T06:29:26.551Z,22.30
2019-06-20T06:31:52.636Z,22.30
2019-06-20T06:34:21.898Z,22.00
2019-06-20T06:36:46.719Z,21.90
2019-06-20T06:39:12.884Z,21.80
2019-06-20T06:41:38.981Z,21.80
2019-06-20T06:44:07.617Z,21.90
2019-06-20T06:46:43.281Z,22.30
2019-06-20T06:49:01.078Z,22.70
2019-06-20T06:51:27.966Z,23.20
2019-06-20T06:53:54.046Z,23.60
2019-06-20T06:56:20.153Z,23.90
2019-06-20T06:58:46.310Z,23.90
2019-06-20T07:01:12.401Z,23.90
2019-06-20T07:03:38.473Z,24.00
2019-06-20T07:06:04.559Z,24.10
2019-06-20T07:08:30.647Z,24.30
2019-06-20T07:10:56.828Z,24.20
2019-06-20T07:13:22.921Z,24.20
2019-06-20T07:15:49.094Z,24.20
2019-06-20T07:18:15.260Z,24.10
2019-06-20T07:20:41.439Z,24.10
2019-06-20T07:23:07.481Z,24.10
2019-06-20T07:25:33.772Z,23.70
2019-06-20T07:27:59.848Z,23.80
2019-06-20T07:30:26.217Z,24.00
2019-06-20T07:32:52.336Z,24.00
2019-06-20T07:35:18.992Z,24.10
2019-06-20T07:37:45.059Z,24.30
2019-06-20T07:40:11.783Z,24.60
2019-06-20T07:42:38.011Z,24.80
2019-06-20T07:45:07.016Z,24.80
2019-06-20T07:47:33.185Z,24.90
2019-06-20T07:49:59.252Z,25.20
2019-06-20T07:52:25.336Z,25.10
2019-06-20T07:54:51.415Z,25.10
2019-06-20T07:57:17.537Z,25.10
2019-06-20T07:59:43.709Z,24.90
2019-06-20T08:02:09.873Z,24.80
2019-06-20T08:04:35.956Z,24.60
2019-06-20T08:07:02.029Z,24.50
2019-06-20T08:09:43.977Z,24.40
2019-06-20T08:11:56.102Z,24.60
2019-06-20T08:14:22.180Z,25.20
2019-06-20T08:16:48.321Z,25.50
2019-06-20T08:19:14.557Z,26.00
2019-06-20T08:21:43.970Z,26.10
2019-06-20T08:24:08.630Z,26.00
2019-06-20T08:26:34.702Z,25.90
2019-06-20T08:29:16.613Z,25.80
2019-06-20T08:31:28.848Z,25.80
2019-06-20T08:33:55.957Z,25.80
2019-06-20T08:36:22.911Z,25.80
2019-06-20T08:38:48.988Z,25.90
2019-06-20T08:41:15.078Z,26.00
2019-06-20T08:43:41.150Z,26.20
2019-06-20T08:46:10.309Z,26.10
2019-06-20T08:48:35.217Z,25.90
2019-06-20T08:51:02.247Z,26.00
2019-06-20T08:53:28.776Z,26.00
2019-06-20T08:55:56.307Z,26.00
2019-06-20T08:58:23.160Z,26.00
2019-06-20T09:00:49.337Z,26.00
2019-06-20T09:03:15.453Z,26.10
2019-06-20T09:05:41.604Z,26.40
2019-06-20T09:08:11.135Z,26.40
2019-06-20T09:10:37.296Z,26.90
2019-06-20T09:13:04.159Z,27.60
2019-06-20T09:15:30.347Z,27.70
2019-06-20T09:17:56.803Z,28.00
2019-06-20T09:20:23.311Z,28.00
2019-06-20T09:22:49.384Z,27.40
2019-06-20T09:25:15.683Z,27.10
2019-06-20T09:27:41.763Z,26.70
2019-06-20T09:30:10.359Z,26.70
2019-06-20T09:32:36.760Z,27.10
2019-06-20T09:35:08.253Z,27.70
2019-06-20T09:37:34.640Z,27.80
2019-06-20T09:40:00.708Z,27.90
2019-06-20T09:42:26.804Z,28.20
2019-06-20T09:44:54.074Z,28.60
2019-06-20T09:47:20.248Z,28.90
2019-06-20T09:49:49.233Z,29.00
2019-06-20T09:52:14.634Z,28.80
2019-06-20T09:54:40.825Z,29.00
2019-06-20T09:57:06.896Z,29.10
2019-06-20T09:59:32.964Z,28.90
2019-06-20T10:01:59.068Z,28.50
2019-06-20T10:04:25.150Z,27.50
2019-06-20T10:06:52.314Z,26.80
2019-06-20T10:09:18.634Z,26.00
2019-06-20T10:11:45.314Z,25.60
2019-06-20T10:14:12.964Z,25.20
2019-06-20T10:16:45.636Z,25.00
2019-06-20T10:19:07.036Z,24.80
2019-06-20T10:21:33.108Z,24.80
2019-06-20T10:23:59.199Z,24.70
2019-06-20T10:26:25.274Z,24.60
2019-06-20T10:28:51.504Z,24.40
2019-06-20T10:31:17.615Z,24.10
2019-06-20T10:33:45.165Z,23.80
2019-06-20T10:36:11.716Z,23.40
2019-06-20T10:38:37.803Z,23.20
2019-06-20T10:41:03.871Z,23.20
2019-06-20T10:43:30.109Z,23.30
2019-06-20T10:45:56.712Z,23.30
2019-06-20T10:48:22.964Z,23.30
2019-06-20T10:50:49.814Z,23.60
2019-06-20T10:53:16.021Z,23.70
2019-06-20T10:55:43.297Z,23.60
2019-06-20T10:58:09.591Z,23.50
2019-06-20T11:00:35.771Z,23.60
2019-06-20T11:03:02.052Z,23.90
2019-06-20T11:05:28.115Z,24.40
2019-06-20T11:07:54.201Z,25.00
2019-06-20T11:10:20.868Z,25.20
2019-06-20T11:12:52.359Z,25.60
2019-06-20T11:15:17.719Z,25.60
2019-06-20T11:17:44.150Z,25.70
2019-06-20T11:20:11.589Z,25.70
2019-06-20T11:22:38.399Z,25.90
2019-06-20T11:25:05.749Z,26.20
2019-06-20T11:27:31.933Z,26.70
2019-06-20T11:29:58.016Z,27.40
2019-06-20T11:32:24.088Z,27.70
2019-06-20T11:34:50.171Z,27.80
2019-06-20T11:37:16.286Z,27.90
2019-06-20T11:39:43.246Z,27.80
2019-06-20T11:42:09.511Z,28.00
2019-06-20T11:44:37.013Z,28.30
2019-06-20T11:47:03.254Z,28.60
2019-06-20T11:49:29.438Z,28.50
2019-06-20T11:51:55.500Z,28.50
2019-06-20T11:54:21.593Z,28.60
2019-06-20T11:56:47.667Z,28.70
2019-06-20T11:59:13.749Z,28.60
2019-06-20T12:01:41.221Z,29.10
2019-06-20T12:04:09.493Z,29.20
2019-06-20T12:06:35.816Z,29.60
2019-06-20T12:09:02.183Z,29.40
2019-06-20T12:11:28.267Z,29.40
2019-06-20T12:13:54.334Z,29.70
2019-06-20T12:16:20.420Z,29.10
2019-06-20T12:18:47.293Z,28.60
2019-06-20T12:21:13.579Z,28.30
2019-06-20T12:23:40.670Z,28.40
2019-06-20T12:26:07.637Z,28.30
2019-06-20T12:28:33.706Z,27.90
2019-06-20T12:30:59.796Z,27.70
2019-06-20T12:33:25.874Z,27.70
2019-06-20T12:35:51.980Z,27.50
2019-06-20T12:38:18.175Z,27.40
2019-06-20T12:40:46.180Z,27.30
2019-06-20T12:43:12.454Z,27.10
2019-06-20T12:45:39.717Z,26.90
2019-06-20T12:48:06.509Z,26.80
2019-06-20T12:50:32.578Z,26.60
2019-06-20T12:52:58.668Z,26.40
2019-06-20T12:55:24.738Z,26.10
2019-06-20T12:57:51.117Z,25.80
2019-06-20T13:00:19.418Z,25.70
2019-06-20T13:02:45.711Z,25.50
2019-06-20T13:05:14.388Z,25.20
2019-06-20T13:07:42.162Z,24.90
2019-06-20T13:10:08.947Z,24.70
2019-06-20T13:12:35.004Z,24.40
2019-06-20T13:15:01.075Z,24.30
2019-06-20T13:17:27.141Z,24.20
2019-06-20T13:19:53.207Z,23.90
2019-06-20T13:22:19.267Z,23.60
2019-06-20T13:24:45.334Z,23.40
2019-06-20T13:27:11.405Z,23.20
2019-06-20T13:29:39.017Z,22.90
2019-06-20T13:32:05.368Z,22.60
2019-06-20T13:34:31.440Z,22.50
2019-06-20T13:36:57.544Z,22.30
2019-06-20T13:39:23.617Z,22.10
2019-06-20T13:41:50.309Z,22.00
2019-06-20T13:44:17.583Z,21.90
2019-06-20T13:46:44.591Z,21.70
2019-06-20T13:49:10.805Z,21.60
2019-06-20T13:51:36.908Z,21.50
2019-06-20T13:54:03.495Z,21.40
2019-06-20T13:56:29.667Z,21.40
2019-06-20T13:58:55.852Z,21.20
2019-06-20T14:01:22.054Z,20.20
2019-06-20T14:03:48.734Z,18.70
2019-06-20T14:06:15.041Z,17.50
2019-06-20T14:08:42.439Z,16.50
2019-06-20T14:11:09.223Z,15.40
2019-06-20T14:13:35.598Z,14.90
2019-06-20T14:16:01.732Z,14.70
2019-06-20T14:18:27.911Z,14.70
2019-06-20T14:20:55.214Z,14.80
2019-06-20T14:23:21.439Z,14.90
2019-06-20T14:25:48.676Z,15.00
2019-06-20T14:28:15.080Z,15.10
2019-06-20T14:30:41.259Z,15.20
2019-06-20T14:33:07.339Z,15.20
2019-06-20T14:35:33.425Z,15.30
2019-06-20T14:37:59.506Z,15.40
2019-06-20T14:40:25.575Z,15.50
2019-06-20T14:42:52.411Z,15.60
2019-06-20T14:45:19.129Z,15.60
2019-06-20T14:47:45.218Z,15.70
2019-06-20T14:50:12.191Z,15.70
2019-06-20T14:52:38.381Z,15.70
2019-06-20T14:55:06.373Z,15.80
2019-06-20T14:57:32.464Z,15.80
2019-06-20T14:59:58.533Z,15.90
2019-06-20T15:02:37.583Z,15.90
2019-06-20T15:04:52.695Z,15.90
2019-06-20T15:07:18.802Z,15.90
2019-06-20T15:09:46.259Z,16.00
2019-06-20T15:12:12.857Z,16.20
2019-06-20T15:14:39.026Z,16.30
2019-06-20T15:17:05.109Z,16.30
2019-06-20T15:19:31.176Z,16.50
2019-06-20T15:21:57.278Z,16.70
2019-06-20T15:24:23.453Z,16.80
2019-06-20T15:26:51.093Z,16.70
2019-06-20T15:29:17.592Z,16.60
2019-06-20T15:31:43.884Z,16.70
2019-06-20T15:34:10.060Z,16.60
2019-06-20T15:36:36.146Z,16.50
2019-06-20T15:39:05.428Z,16.40
2019-06-20T15:41:31.505Z,16.40
2019-06-20T15:43:57.887Z,16.30
2019-06-20T15:46:24.364Z,16.30
2019-06-20T15:48:50.466Z,16.40
2019-06-20T15:51:16.531Z,16.80
2019-06-20T15:53:42.604Z,17.70
2019-06-20T15:56:08.698Z,19.30
2019-06-20T15:58:34.857Z,20.20
2019-06-20T16:01:00.954Z,20.60
2019-06-20T16:03:27.024Z,21.10
2019-06-20T16:05:53.182Z,21.40
2019-06-20T16:08:19.283Z,21.80
2019-06-20T16:10:45.348Z,22.30
2019-06-20T16:13:11.474Z,22.20
2019-06-20T16:15:37.892Z,22.70
2019-06-20T16:18:03.960Z,23.30
2019-06-20T16:20:30.046Z,23.50
2019-06-20T16:22:56.121Z,23.80
2019-06-20T16:25:22.301Z,23.80
2019-06-20T16:27:48.366Z,24.30
2019-06-20T16:30:15.247Z,24.40
2019-06-20T16:32:41.499Z,24.50
2019-06-20T16:35:08.179Z,24.80
2019-06-20T16:37:34.614Z,24.80
2019-06-20T16:40:00.808Z,25.60
2019-06-20T16:42:26.876Z,27.20
2019-06-20T16:44:52.962Z,28.50
2019-06-20T16:47:19.134Z,29.40
2019-06-20T16:49:45.218Z,29.40
2019-06-20T16:52:11.292Z,29.50
2019-06-20T16:54:37.387Z,30.10
2019-06-20T16:57:03.554Z,30.00
2019-06-20T16:59:29.637Z,29.90
2019-06-20T17:01:55.706Z,30.50
2019-06-20T17:04:21.785Z,31.20
2019-06-20T17:06:47.877Z,30.60
2019-06-20T17:09:14.144Z,29.50
2019-06-20T17:11:40.237Z,28.30
2019-06-20T17:14:06.312Z,27.20
2019-06-20T17:16:32.400Z,26.00
2019-06-20T17:18:58.513Z,25.10
2019-06-20T17:21:24.757Z,24.20
2019-06-20T17:23:50.893Z,23.60
2019-06-20T17:26:17.008Z,23.20
2019-06-20T17:28:43.075Z,22.80
2019-06-20T17:31:09.262Z,22.40
2019-06-20T17:33:35.429Z,22.20
2019-06-20T17:36:14.406Z,22.00
2019-06-20T17:38:29.502Z,21.80
2019-06-20T17:40:55.602Z,21.70
2019-06-20T17:43:21.665Z,21.70
2019-06-20T17:45:47.744Z,21.60
2019-06-20T17:48:13.814Z,21.50
2019-06-20T17:50:40.013Z,21.20
2019-06-20T17:53:06.163Z,20.90
2019-06-20T17:55:32.227Z,20.60
2019-06-20T17:57:58.321Z,20.30
2019-06-20T18:00:25.093Z,20.20
2019-06-20T18:02:51.192Z,20.20
2019-06-20T18:05:17.585Z,20.20
2019-06-20T18:07:43.839Z,20.20
2019-06-20T18:10:12.076Z,20.40
2019-06-20T18:12:38.156Z,20.50
2019-06-20T18:15:05.520Z,20.70
2019-06-20T18:17:31.712Z,20.70
2019-06-20T18:19:57.780Z,20.80
2019-06-20T18:22:23.863Z,20.70
2019-06-20T18:24:49.944Z,20.60
2019-06-20T18:27:16.005Z,20.50
2019-06-20T18:29:42.090Z,20.40
2019-06-20T18:32:08.159Z,20.20
2019-06-20T18:34:34.245Z,19.80
2019-06-20T18:37:00.332Z,19.50
2019-06-20T18:39:26.424Z,19.30
2019-06-20T18:41:52.493Z,19.20
2019-06-20T18:44:18.672Z,19.10
2019-06-20T18:46:44.740Z,18.90
2019-06-20T18:49:10.837Z,18.70
2019-06-20T18:51:36.916Z,18.60
2019-06-20T18:54:03.495Z,18.50
2019-06-20T18:56:29.606Z,18.30
2019-06-20T18:58:55.753Z,18.10
2019-06-20T19:01:22.009Z,17.90
2019-06-20T19:03:48.130Z,17.80
2019-06-20T19:06:14.301Z,17.70
2019-06-20T19:08:40.384Z,17.60
2019-06-20T19:11:06.555Z,17.50
2019-06-20T19:13:32.719Z,17.50
2019-06-20T19:15:58.965Z,17.60
2019-06-20T19:18:25.102Z,17.70
2019-06-20T19:20:51.229Z,17.70
2019-06-20T19:23:17.287Z,17.70
2019-06-20T19:25:43.467Z,17.70
2019-06-20T19:28:09.565Z,17.70
2019-06-20T19:30:42.231Z,17.70
2019-06-20T19:33:08.401Z,17.70
2019-06-20T19:35:34.571Z,17.70
2019-06-20T19:38:00.769Z,17.60
2019-06-20T19:40:30.729Z,17.60
2019-06-20T19:42:56.929Z,17.50
2019-06-20T19:45:23.138Z,17.40
2019-06-20T19:47:49.305Z,17.30
2019-06-20T19:50:15.681Z,17.10
2019-06-20T19:52:41.749Z,17.00
2019-06-20T19:55:09.071Z,17.00
2019-06-20T19:57:35.158Z,17.00
2019-06-20T20:00:02.849Z,17.00
2019-06-20T20:02:28.931Z,17.00
2019-06-20T20:04:55.119Z,16.90
2019-06-20T20:07:21.197Z,16.80
2019-06-20T20:09:47.357Z,16.80
2019-06-20T20:12:13.454Z,16.80
2019-06-20T20:14:39.625Z,16.80
2019-06-20T20:17:05.809Z,16.80
2019-06-20T20:19:31.873Z,16.80
2019-06-20T20:21:57.970Z,16.70
2019-06-20T20:24:24.233Z,16.60
2019-06-20T20:26:50.304Z,16.50
2019-06-20T20:29:16.374Z,16.40
2019-06-20T20:31:42.427Z,16.40
2019-06-20T20:34:11.755Z,16.50
2019-06-20T20:36:36.817Z,16.40
2019-06-20T20:39:05.641Z,16.40
2019-06-20T20:41:31.707Z,16.30
2019-06-20T20:43:57.780Z,16.30
2019-06-20T20:46:23.864Z,16.30
2019-06-20T20:48:49.938Z,16.30
2019-06-20T20:51:16.116Z,16.40
2019-06-20T20:53:42.187Z,16.30
2019-06-20T20:56:08.282Z,16.30
2019-06-20T20:58:34.357Z,16.30
2019-06-20T21:01:06.986Z,16.30
2019-06-20T21:03:33.085Z,16.20
2019-06-20T21:05:59.240Z,16.20
2019-06-20T21:08:25.332Z,16.20
2019-06-20T21:10:51.497Z,16.20
2019-06-20T21:13:17.628Z,16.20
2019-06-20T21:15:43.756Z,16.20
2019-06-20T21:18:09.844Z,16.20
2019-06-20T21:20:35.927Z,16.20
2019-06-20T21:23:02.096Z,16.20
2019-06-20T21:25:31.906Z,16.20
2019-06-20T21:27:56.152Z,16.20
2019-06-20T21:30:22.646Z,16.20
2019-06-20T21:32:48.805Z,16.20
2019-06-20T21:35:15.417Z,16.20
2019-06-20T21:37:41.488Z,16.20
2019-06-20T21:40:08.958Z,16.20
2019-06-20T21:42:35.040Z,16.30
2019-06-20T21:45:01.109Z,16.30
2019-06-20T21:47:27.192Z,16.40
2019-06-20T21:49:53.259Z,16.40
2019-06-20T21:52:19.354Z,16.40
2019-06-20T21:54:45.428Z,16.30
2019-06-20T21:57:11.522Z,16.30
2019-06-20T21:59:37.707Z,16.30
2019-06-20T22:02:05.388Z,16.30
2019-06-20T22:04:31.573Z,16.30
2019-06-20T22:06:57.640Z,16.30
2019-06-20T22:09:23.709Z,16.20
2019-06-20T22:11:49.775Z,16.20
2019-06-20T22:14:15.861Z,16.20
2019-06-20T22:16:41.932Z,16.20
2019-06-20T22:19:08.032Z,16.10
2019-06-20T22:21:34.098Z,16.10
2019-06-20T22:24:00.170Z,16.10
2019-06-20T22:26:26.260Z,16.00
2019-06-20T22:28:52.324Z,16.00
2019-06-20T22:31:18.405Z,15.90
2019-06-20T22:33:44.478Z,15.90
2019-06-20T22:36:11.340Z,15.90
2019-06-20T22:38:37.412Z,15.80
2019-06-20T22:41:03.476Z,15.80
2019-06-20T22:43:29.566Z,15.70
2019-06-20T22:45:55.641Z,15.70
2019-06-20T22:48:21.830Z,15.70
2019-06-20T22:50:47.897Z,15.60
2019-06-20T22:53:13.992Z,15.60
2019-06-20T22:55:40.066Z,15.60
2019-06-20T22:58:06.336Z,15.50
2019-06-20T23:00:33.121Z,15.50
2019-06-20T23:02:59.223Z,15.50
2019-06-20T23:05:25.392Z,15.40
2019-06-20T23:07:51.456Z,15.40
2019-06-20T23:10:17.548Z,15.40
2019-06-20T23:12:43.620Z,15.40
2019-06-20T23:15:10.115Z,15.30
2019-06-20T23:17:36.200Z,15.10
2019-06-20T23:20:06.445Z,14.90
2019-06-20T23:22:32.512Z,15.10
2019-06-20T23:24:58.595Z,15.20
2019-06-20T23:27:24.682Z,15.10
2019-06-20T23:29:50.858Z,15.00
2019-06-20T23:32:17.029Z,15.10
2019-06-20T23:34:43.115Z,15.10
2019-06-20T23:37:13.058Z,15.20
2019-06-20T23:39:37.220Z,15.30
2019-06-20T23:42:03.302Z,15.30
2019-06-20T23:44:29.465Z,15.30
2019-06-20T23:46:55.549Z,15.40
2019-06-20T23:49:21.631Z,15.30
2019-06-20T23:51:49.616Z,15.40
2019-06-20T23:54:15.704Z,15.30
2019-06-20T23:56:41.883Z,15.30
2019-06-20T23:59:07.952Z,15.20
